Chapada dos Veadeiros, Brazil
Current Conditions -  °F | °C
As of 8:00 AM on Monday 26 Jan 2015 (Local Time) from SBBR Reporting Station
Clear Clear  
Wind Chill: 66°   Ceiling: Unl
Heat Index: 66°   Visibility: 6mi
Dew Point: 59°   Wind: 3mph
Humidity: 78%   Direction: 340°NNW
Pressure: 30.12"   Gusts: NA
Location:  14.13°S, 47.51°W
Report Text: SBBR 261000Z 34003KT CAVOK 19/15 Q1020
Loading
Personal Weather Stations






























Interactive Weather Map New forecast layout! Learn more

10-Day Weather Forecast

Advertisements
Track Severe Weather on mobile